Time;durP1;ratioP1;P1;durP2;ratioP2;P2;SDS_P1;SDS_P2;PMS_P1;PMS_P2;Temp;Humidity;BMP_temperature;BMP_pressure;BME280_temperature;BME280_humidity;BME280_pressure;Samples;Min_cycle;Max_cycle;Signal;HPM_P1;HPM_P2
2022/11/17 00:00:37;;;;;;;5.73;4.40;;;;;;;5.97;89.18;100445.91;4989945;28;20219;-71
2022/11/17 00:03:03;;;;;;;4.80;4.13;;;;;;;5.96;89.03;100441.66;4989854;28;20295;-73
2022/11/17 00:05:28;;;;;;;6.70;4.73;;;;;;;5.96;88.90;100434.03;5004830;28;20192;-74
2022/11/17 00:07:53;;;;;;;7.20;4.63;;;;;;;5.95;89.16;100434.88;4989499;28;20660;-74
2022/11/17 00:10:19;;;;;;;6.43;4.93;;;;;;;5.96;88.85;100434.91;4987805;28;20260;-74
2022/11/17 00:15:29;;;;;;;6.70;4.90;;;;;;;5.94;88.82;100431.44;4986078;28;20199;-73
2022/11/17 00:23:24;;;;;;;6.27;5.03;;;;;;;5.93;88.67;100422.09;4994175;28;20239;-74
2022/11/17 00:25:50;;;;;;;6.20;5.00;;;;;;;5.92;88.71;100416.97;4987531;28;20188;-74
2022/11/17 00:28:16;;;;;;;7.13;4.90;;;;;;;5.90;88.52;100418.63;4989663;28;20270;-74
2022/11/17 00:36:09;;;;;;;7.17;5.43;;;;;;;5.91;88.91;100412.72;4989203;28;20192;-74
2022/11/17 00:38:34;;;;;;;6.57;5.27;;;;;;;5.92;89.01;100400.06;4989523;28;20199;-71
2022/11/17 00:41:00;;;;;;;7.40;6.07;;;;;;;5.89;88.80;100407.59;4990459;28;20212;-73
2022/11/17 00:43:25;;;;;;;7.77;5.50;;;;;;;5.85;88.50;100407.47;4992758;28;20287;-73
2022/11/17 00:45:51;;;;;;;6.53;5.67;;;;;;;5.86;88.46;100406.63;4992301;28;20238;-74
2022/11/17 00:48:16;;;;;;;6.67;5.83;;;;;;;5.87;87.73;100391.44;4992506;28;20188;-72
2022/11/17 00:50:42;;;;;;;7.37;5.70;;;;;;;5.88;87.87;100395.69;4990762;28;20215;-74
2022/11/17 00:53:07;;;;;;;8.27;5.30;;;;;;;5.85;88.50;100398.13;4992570;28;20195;-74
2022/11/17 00:55:32;;;;;;;7.30;5.90;;;;;;;5.85;88.21;100398.13;4992300;28;20258;-71
2022/11/17 00:57:58;;;;;;;7.33;6.17;;;;;;;5.84;88.31;100386.25;4992820;28;20274;-74
2022/11/17 01:00:23;;;;;;;8.40;5.70;;;;;;;5.81;88.06;100388.69;4992726;28;20222;-73
2022/11/17 01:02:49;;;;;;;9.73;6.87;;;;;;;5.81;87.92;100381.06;4992394;28;20191;-74
2022/11/17 01:05:14;;;;;;;8.53;6.13;;;;;;;5.82;87.93;100376.88;4991815;28;20227;-73
2022/11/17 01:07:40;;;;;;;9.97;6.73;;;;;;;5.79;88.11;100371.66;4991065;28;20306;-74
2022/11/17 01:10:06;;;;;;;8.60;6.83;;;;;;;5.80;88.17;100374.28;4990448;28;20269;-73
2022/11/17 01:12:31;;;;;;;7.43;6.67;;;;;;;5.79;87.83;100377.59;4991976;28;20219;-74
2022/11/17 01:14:56;;;;;;;7.07;6.20;;;;;;;5.76;88.41;100374.97;4992167;28;20541;-74
2022/11/17 01:17:22;;;;;;;8.80;7.37;;;;;;;5.76;87.33;100385.13;4981342;28;20192;-73
2022/11/17 01:19:47;;;;;;;8.23;7.10;;;;;;;5.77;87.46;100370.75;4991678;28;20294;-74
2022/11/17 01:22:14;;;;;;;8.57;7.50;;;;;;;5.75;87.21;100367.31;4990661;28;20279;-74
2022/11/17 01:24:39;;;;;;;9.10;7.83;;;;;;;5.73;87.78;100368.94;4978776;28;20653;-73
2022/11/17 01:27:05;;;;;;;9.50;6.90;;;;;;;5.73;87.78;100364.72;4990178;28;20279;-73
2022/11/17 01:29:30;;;;;;;7.10;6.40;;;;;;;5.73;88.05;100346.06;4989725;28;20222;-74
2022/11/17 01:31:56;;;;;;;9.00;8.00;;;;;;;5.72;87.79;100355.38;4989077;28;20208;-72
2022/11/17 01:34:21;;;;;;;7.80;7.00;;;;;;;5.70;87.77;100356.13;4991589;28;20188;-74
2022/11/17 01:39:31;;;;;;;8.17;7.00;;;;;;;5.68;87.57;100345.06;4989975;28;20738;-74
2022/11/17 01:41:57;;;;;;;8.03;7.20;;;;;;;5.69;88.44;100350.22;4991605;28;20191;-73
2022/11/17 01:44:35;;;;;;;7.77;6.97;;;;;;;5.68;87.60;100330.72;4990817;28;20192;-72
2022/11/17 01:47:03;;;;;;;9.67;7.73;;;;;;;5.64;87.36;100317.88;4993886;28;20207;-74
2022/11/17 01:49:29;;;;;;;7.87;7.07;;;;;;;5.65;87.60;100317.91;4991350;28;20658;-73
2022/11/17 01:52:03;;;;;;;8.43;7.63;;;;;;;5.64;87.46;100311.13;4988037;28;20386;-70
2022/11/17 01:54:32;;;;;;;8.23;7.30;;;;;;;5.62;87.89;100301.72;4986859;28;20200;-74
2022/11/17 01:57:04;;;;;;;9.00;7.57;;;;;;;5.57;87.71;100296.50;4991165;28;20246;-73
2022/11/17 01:59:41;;;;;;;8.33;7.43;;;;;;;5.53;87.31;100297.22;4991179;28;20230;-73
2022/11/17 02:02:07;;;;;;;9.07;8.10;;;;;;;5.54;88.05;100298.97;4988709;28;20183;-73
2022/11/17 02:04:43;;;;;;;8.40;7.47;;;;;;;5.53;87.34;100306.53;4989379;28;20823;-73
2022/11/17 02:07:22;;;;;;;8.03;7.23;;;;;;;5.51;87.50;100309.03;4987884;28;20668;-73
2022/11/17 02:09:48;;;;;;;8.27;7.43;;;;;;;5.52;87.35;100297.19;4989329;28;20215;-73
2022/11/17 02:12:15;;;;;;;9.73;8.50;;;;;;;5.50;87.51;100308.97;4988975;28;20204;-72
2022/11/17 02:14:41;;;;;;;8.87;7.97;;;;;;;5.49;87.05;100299.63;4986548;28;20275;-73
2022/11/17 02:17:08;;;;;;;8.83;7.83;;;;;;;5.46;87.42;100299.53;4983736;28;20279;-73
2022/11/17 02:19:37;;;;;;;7.93;7.13;;;;;;;5.45;86.64;100280.91;4987086;28;20239;-73
2022/11/17 02:22:12;;;;;;;9.60;7.80;;;;;;;5.44;87.57;100304.56;4990381;28;20192;-73
2022/11/17 02:24:58;;;;;;;8.87;7.97;;;;;;;5.43;87.75;100300.28;4990718;28;20294;-73
2022/11/17 02:27:42;;;;;;;8.63;7.73;;;;;;;5.41;87.71;100296.88;4986431;28;20873;-73
2022/11/17 02:30:15;;;;;;;8.50;7.70;;;;;;;5.37;86.91;100297.59;4984735;28;20728;-72
2022/11/17 02:32:50;;;;;;;9.37;8.40;;;;;;;5.35;87.12;100294.13;4990692;28;20211;-72
2022/11/17 02:35:39;;;;;;;10.57;7.90;;;;;;;5.37;87.11;100292.50;4988251;28;20203;-72
2022/11/17 02:38:15;;;;;;;8.33;7.40;;;;;;;5.37;87.58;100289.97;4990580;28;20696;-73
2022/11/17 02:40:57;;;;;;;8.87;8.03;;;;;;;5.35;87.21;100290.72;4988660;28;20218;-73
2022/11/17 02:46:21;;;;;;;9.90;7.77;;;;;;;5.26;86.74;100281.16;4988863;28;20242;-72
2022/11/17 02:48:59;;;;;;;9.23;8.27;;;;;;;5.27;86.97;100265.13;4990265;28;20279;-73
2022/11/17 02:51:24;;;;;;;7.50;6.80;;;;;;;5.25;86.72;100264.19;4985116;28;20347;-72
2022/11/17 02:53:53;;;;;;;9.60;8.70;;;;;;;5.26;86.81;100282.84;4989763;28;20196;-72
2022/11/17 02:56:19;;;;;;;9.90;7.90;;;;;;;5.20;86.83;100263.19;4989720;28;20192;-73
2022/11/17 02:58:49;;;;;;;9.40;8.50;;;;;;;5.21;86.67;100267.44;4972128;28;20220;-73
2022/11/17 03:01:26;;;;;;;8.37;7.40;;;;;;;5.22;87.12;100269.19;4989853;28;20211;-73
2022/11/17 03:04:05;;;;;;;8.20;7.40;;;;;;;5.20;86.24;100263.19;4989556;28;20203;-71
2022/11/17 03:06:50;;;;;;;9.53;7.93;;;;;;;5.20;86.20;100268.28;4985257;28;20191;-72
2022/11/17 03:09:47;;;;;;;8.17;7.37;;;;;;;5.16;86.28;100258.84;4988315;28;20238;-73
2022/11/17 03:12:27;;;;;;;8.90;7.13;;;;;;;5.17;86.19;100247.91;4989129;28;20227;-73
2022/11/17 03:15:27;;;;;;;8.47;7.50;;;;;;;5.14;86.38;100255.41;4988590;28;20330;-73
2022/11/17 03:18:06;;;;;;;9.13;8.03;;;;;;;5.15;86.45;100246.97;4995487;28;20207;-74
2022/11/17 03:21:00;;;;;;;8.67;7.77;;;;;;;5.14;86.43;100252.88;4987851;28;20251;-72
2022/11/17 03:23:35;;;;;;;8.50;7.57;;;;;;;5.12;86.33;100240.94;4988085;28;20680;-72
2022/11/17 03:26:04;;;;;;;8.50;7.60;;;;;;;5.13;85.51;100243.53;4989641;28;20191;-73
2022/11/17 03:28:31;;;;;;;8.13;7.33;;;;;;;5.10;85.92;100237.47;4986184;28;20564;-73
2022/11/17 03:30:59;;;;;;;9.10;7.63;;;;;;;5.07;86.03;100235.72;4997074;28;20199;-72
2022/11/17 03:33:27;;;;;;;8.27;7.30;;;;;;;5.04;85.96;100220.44;4989836;28;20554;-73
2022/11/17 03:36:02;;;;;;;7.83;6.87;;;;;;;5.06;86.30;100234.00;4989905;28;20188;-73
2022/11/17 03:38:34;;;;;;;8.40;7.47;;;;;;;5.06;86.79;100241.59;4989540;28;20282;-74
2022/11/17 03:41:04;;;;;;;9.63;7.23;;;;;;;5.01;86.29;100238.06;4989250;28;20215;-73
2022/11/17 03:43:31;;;;;;;10.57;7.03;;;;;;;5.01;85.99;100233.00;4988404;28;20191;-73
2022/11/17 03:46:04;;;;;;;7.50;6.80;;;;;;;5.02;86.19;100227.09;4989533;28;20278;-74
2022/11/17 03:48:38;;;;;;;8.30;7.30;;;;;;;5.02;85.87;100216.13;4989727;28;20223;-73
2022/11/17 03:51:10;;;;;;;8.97;6.77;;;;;;;4.97;85.75;100231.19;4989343;28;20234;-73
2022/11/17 03:53:36;;;;;;;9.23;7.63;;;;;;;4.96;86.29;100206.63;4988453;28;20223;-72
2022/11/17 03:56:13;;;;;;;8.77;7.30;;;;;;;4.98;86.14;100199.06;4989491;28;20235;-74
2022/11/17 03:58:45;;;;;;;8.47;7.17;;;;;;;4.94;86.77;100197.25;4989369;28;20201;-73
2022/11/17 04:01:12;;;;;;;8.87;6.63;;;;;;;4.95;86.06;100187.16;4989204;28;20199;-73
2022/11/17 04:03:38;;;;;;;7.60;6.73;;;;;;;4.99;86.37;100193.19;4988705;28;20255;-73
2022/11/17 04:06:04;;;;;;;8.53;7.43;;;;;;;4.95;86.63;100181.22;4988964;28;20188;-72
2022/11/17 04:08:30;;;;;;;9.80;7.77;;;;;;;4.91;86.41;100176.84;5004068;28;20199;-72
2022/11/17 04:16:38;;;;;;;7.60;6.87;;;;;;;4.89;86.51;100181.03;4990904;28;20183;-72
2022/11/17 04:19:03;;;;;;;7.80;7.00;;;;;;;4.86;86.35;100189.41;4991844;28;20211;-73
2022/11/17 04:21:29;;;;;;;8.07;7.27;;;;;;;4.87;86.80;100180.97;4991789;28;20302;-74
2022/11/17 04:23:56;;;;;;;7.60;6.50;;;;;;;4.88;86.45;100176.78;4991111;28;20192;-72
2022/11/17 04:29:06;;;;;;;8.53;7.13;;;;;;;4.86;86.01;100178.41;4992874;28;20187;-72
2022/11/17 04:31:31;;;;;;;7.43;6.67;;;;;;;4.81;86.15;100173.19;4992809;28;20689;-74
2022/11/17 04:34:02;;;;;;;7.50;6.67;;;;;;;4.84;86.83;100165.66;4991975;28;20210;-73
2022/11/17 04:36:30;;;;;;;8.10;7.27;;;;;;;4.81;85.84;100157.09;4989813;28;20203;-74
2022/11/17 04:38:57;;;;;;;8.37;7.47;;;;;;;4.82;86.35;100166.44;4992972;28;20226;-73
2022/11/17 04:44:11;;;;;;;11.17;8.13;;;;;;;4.78;86.20;100145.19;4991338;28;20195;-73
2022/11/17 04:46:37;;;;;;;9.23;7.60;;;;;;;4.77;85.81;100156.16;4988899;28;20195;-74
2022/11/17 04:49:03;;;;;;;9.57;7.63;;;;;;;4.78;86.21;100154.50;4992477;28;20267;-74
2022/11/17 04:51:30;;;;;;;10.10;7.23;;;;;;;4.76;86.23;100151.03;4992310;28;20292;-74
2022/11/17 04:53:56;;;;;;;9.20;7.67;;;;;;;4.75;86.75;100162.84;4992935;28;20258;-71
2022/11/17 04:56:23;;;;;;;8.77;7.83;;;;;;;4.73;86.58;100156.88;4992252;28;20199;-70
2022/11/17 04:58:49;;;;;;;8.77;7.87;;;;;;;4.74;86.42;100156.06;4990144;28;20196;-73
2022/11/17 05:01:17;;;;;;;9.20;7.70;;;;;;;4.73;86.30;100151.81;4990771;28;20220;-74
2022/11/17 05:03:42;;;;;;;8.90;7.87;;;;;;;4.74;86.79;100150.16;4992557;28;20198;-73
2022/11/17 05:06:15;;;;;;;8.70;7.77;;;;;;;4.73;86.46;100154.34;4990347;28;20275;-72
2022/11/17 05:08:41;;;;;;;9.77;8.33;;;;;;;4.71;86.68;100171.19;4983260;28;20180;-72
2022/11/17 05:13:53;;;;;;;9.83;8.70;;;;;;;4.71;86.95;100135.69;4990841;28;20250;-72
2022/11/17 05:19:05;;;;;;;9.47;8.47;;;;;;;4.69;86.40;100139.84;4989456;28;20227;-73
2022/11/17 05:21:31;;;;;;;10.00;8.70;;;;;;;4.69;86.75;100128.84;4987786;28;20215;-72
2022/11/17 05:23:57;;;;;;;9.67;8.67;;;;;;;4.70;86.50;100136.50;4991921;28;20198;-71
2022/11/17 05:26:28;;;;;;;10.37;8.50;;;;;;;4.66;87.13;100134.69;4987951;28;20274;-74
2022/11/17 05:28:54;;;;;;;11.17;8.60;;;;;;;4.68;87.01;100129.66;4990721;28;20679;-73
2022/11/17 05:31:21;;;;;;;9.87;8.13;;;;;;;4.67;86.49;100126.28;4991557;28;20689;-72
2022/11/17 05:33:46;;;;;;;10.23;8.93;;;;;;;4.64;86.89;100133.78;4990468;28;20187;-73
2022/11/17 05:36:12;;;;;;;10.73;9.53;;;;;;;4.64;86.76;100127.81;4990649;28;20567;-72
2022/11/17 05:38:38;;;;;;;9.33;8.27;;;;;;;4.62;86.20;100137.94;4990008;28;20192;-72
2022/11/17 05:41:03;;;;;;;9.67;8.63;;;;;;;4.65;86.30;100132.94;4989804;28;20708;-73
2022/11/17 05:43:29;;;;;;;11.10;8.97;;;;;;;4.61;86.19;100127.75;4986363;28;20242;-71
2022/11/17 05:45:54;;;;;;;11.63;9.47;;;;;;;4.60;86.19;100141.25;4988926;28;20216;-72
2022/11/17 05:48:20;;;;;;;10.73;9.20;;;;;;;4.64;86.26;100128.69;4991548;28;20703;-73
2022/11/17 05:50:45;;;;;;;10.63;9.23;;;;;;;4.63;86.26;100128.66;4990205;28;20215;-72
2022/11/17 05:53:12;;;;;;;11.63;9.83;;;;;;;4.60;86.02;100146.31;4991602;28;20351;-73
2022/11/17 05:55:37;;;;;;;12.30;8.83;;;;;;;4.60;85.95;100131.09;4989900;28;20295;-72
2022/11/17 05:58:11;;;;;;;10.03;8.77;;;;;;;4.63;86.43;100132.06;4990406;28;20266;-73
2022/11/17 06:00:38;;;;;;;10.30;9.00;;;;;;;4.58;86.19;100131.06;4989175;28;20212;-74
2022/11/17 06:03:11;;;;;;;11.30;9.67;;;;;;;4.60;86.31;100121.81;4990128;28;20662;-73
2022/11/17 06:05:37;;;;;;;10.60;9.50;;;;;;;4.57;85.94;100120.88;4989870;28;20683;-73
2022/11/17 06:08:02;;;;;;;12.30;10.57;;;;;;;4.57;86.28;100118.31;4991185;28;20270;-72
2022/11/17 06:10:28;;;;;;;11.70;10.50;;;;;;;4.55;86.22;100114.91;4989835;28;20224;-71
2022/11/17 06:12:53;;;;;;;11.50;9.93;;;;;;;4.55;86.36;100109.84;4991166;28;20302;-73
2022/11/17 06:15:19;;;;;;;12.23;10.30;;;;;;;4.56;86.25;100097.19;4990714;28;20246;-73
2022/11/17 06:17:53;;;;;;;14.73;11.80;;;;;;;4.56;86.29;100098.88;4989554;28;20634;-71
2022/11/17 06:20:29;;;;;;;12.73;11.03;;;;;;;4.54;85.70;100108.97;4989681;28;20223;-73
2022/11/17 06:22:59;;;;;;;12.67;11.00;;;;;;;4.57;85.58;100098.06;4991383;28;20685;-73
2022/11/17 06:25:26;;;;;;;13.33;10.80;;;;;;;4.54;85.29;100105.56;4987447;28;20525;-74
2022/11/17 06:27:52;;;;;;;13.37;10.63;;;;;;;4.54;85.17;100108.97;4992485;28;20196;-73
2022/11/17 06:30:18;;;;;;;12.30;10.87;;;;;;;4.54;85.39;100128.34;4990685;28;20579;-73
2022/11/17 06:32:45;;;;;;;15.77;11.47;;;;;;;4.55;85.60;100104.75;4990520;28;20669;-73
2022/11/17 06:35:13;;;;;;;11.80;10.23;;;;;;;4.53;85.65;100104.72;4990559;28;20184;-73
2022/11/17 06:37:38;;;;;;;14.23;11.03;;;;;;;4.54;85.86;100100.47;4987833;28;20188;-74
2022/11/17 06:40:04;;;;;;;12.50;10.80;;;;;;;4.52;86.21;100092.81;4989869;28;20207;-74
2022/11/17 06:45:14;;;;;;;12.00;10.30;;;;;;;4.52;85.71;100100.44;4990290;28;20271;-73
2022/11/17 06:47:39;;;;;;;12.67;10.23;;;;;;;4.51;85.56;100097.88;4989671;28;20262;-72
2022/11/17 06:50:06;;;;;;;15.43;12.23;;;;;;;4.51;86.05;100098.72;4988495;28;20739;-73
2022/11/17 06:52:32;;;;;;;12.33;11.00;;;;;;;4.51;85.98;100102.94;4989169;28;20906;-73
2022/11/17 06:54:57;;;;;;;13.63;11.73;;;;;;;4.50;85.95;100104.59;4990536;28;20215;-72
2022/11/17 06:57:23;;;;;;;12.30;10.97;;;;;;;4.52;85.89;100105.50;4988761;28;20183;-72
2022/11/17 06:59:50;;;;;;;12.87;9.83;;;;;;;4.51;85.63;100105.47;4990146;28;20207;-72
2022/11/17 07:02:16;;;;;;;12.17;10.63;;;;;;;4.52;85.96;100097.91;4990493;28;20211;-72
2022/11/17 07:04:41;;;;;;;13.10;10.73;;;;;;;4.50;85.95;100099.53;4988615;28;20653;-71
2022/11/17 07:07:06;;;;;;;15.00;10.47;;;;;;;4.51;86.38;100103.78;4989467;28;20199;-73
2022/11/17 07:09:32;;;;;;;13.37;11.00;;;;;;;4.50;85.98;100102.06;4989902;28;20188;-72
2022/11/17 07:11:57;;;;;;;12.57;11.03;;;;;;;4.48;85.90;100102.84;4989037;28;20286;-72
2022/11/17 07:14:23;;;;;;;13.67;10.90;;;;;;;4.48;86.09;100095.22;4985937;28;20901;-73
2022/11/17 07:16:48;;;;;;;17.67;11.60;;;;;;;4.50;85.96;100106.25;4987997;28;20207;-72
2022/11/17 07:19:14;;;;;;;14.33;10.80;;;;;;;4.48;85.92;100102.84;4989549;28;20210;-73
2022/11/17 07:21:39;;;;;;;12.37;10.60;;;;;;;4.49;85.84;100097.81;4989692;28;20580;-73
2022/11/17 07:24:05;;;;;;;13.83;11.33;;;;;;;4.49;85.75;100089.34;5001696;28;20188;-72
2022/11/17 07:26:30;;;;;;;12.57;10.40;;;;;;;4.51;86.05;100088.56;4993682;28;20573;-73
2022/11/17 07:28:55;;;;;;;13.40;10.97;;;;;;;4.50;85.35;100094.47;5004579;28;20187;-73
2022/11/17 07:31:21;;;;;;;12.23;10.23;;;;;;;4.53;85.86;100106.38;4987466;28;20223;-72
2022/11/17 07:33:46;;;;;;;13.13;10.90;;;;;;;4.49;86.10;100091.88;4989686;28;20294;-74
2022/11/17 07:36:16;;;;;;;13.33;9.60;;;;;;;4.49;86.03;100100.34;4989848;28;20196;-72
2022/11/17 07:38:41;;;;;;;13.27;10.90;;;;;;;4.50;86.07;100109.66;4986088;28;20192;-71
2022/11/17 07:41:09;;;;;;;13.23;10.07;;;;;;;4.53;85.71;100102.19;4984622;28;20712;-74
2022/11/17 07:43:35;;;;;;;12.47;10.27;;;;;;;4.54;86.50;100095.41;4985495;28;20299;-71
2022/11/17 07:46:10;;;;;;;12.43;10.13;;;;;;;4.53;85.92;100101.31;4989189;28;20230;-72
2022/11/17 07:48:35;;;;;;;12.83;10.77;;;;;;;4.53;86.03;100101.31;4989167;28;20199;-70
2022/11/17 07:51:02;;;;;;;11.87;10.10;;;;;;;4.52;86.34;100095.34;4991721;28;20215;-74
2022/11/17 07:53:28;;;;;;;11.70;9.97;;;;;;;4.51;86.38;100100.41;4990553;28;20200;-73
2022/11/17 07:55:54;;;;;;;12.53;9.93;;;;;;;4.51;86.31;100096.19;4986332;28;20200;-71
2022/11/17 07:58:20;;;;;;;13.93;10.57;;;;;;;4.53;86.30;100096.22;4993560;28;20191;-72
2022/11/17 08:00:45;;;;;;;13.17;10.23;;;;;;;5.24;90.21;100096.66;4991067;28;20265;-71
2022/11/17 08:03:11;;;;;;;12.67;9.53;;;;;;;5.15;86.66;100084.59;4971401;28;20371;-69
2022/11/17 08:05:38;;;;;;;12.93;9.70;;;;;;;4.78;85.26;100094.50;4993422;28;20192;-71
2022/11/17 08:08:04;;;;;;;11.03;9.73;;;;;;;4.74;86.08;100092.66;4987338;28;20245;-71
2022/11/17 08:10:30;;;;;;;12.40;10.23;;;;;;;4.74;86.69;100091.84;4989540;28;20207;-71
2022/11/17 08:12:58;;;;;;;12.93;10.30;;;;;;;4.68;86.34;100097.56;4990600;28;20674;-71
2022/11/17 08:15:24;;;;;;;13.27;10.63;;;;;;;4.67;87.00;100087.38;4992804;28;20191;-72
2022/11/17 08:17:58;;;;;;;13.70;10.50;;;;;;;4.70;87.26;100087.47;4990525;28;20215;-71
2022/11/17 08:20:24;;;;;;;14.07;10.53;;;;;;;4.67;87.07;100087.38;4989579;28;20709;-72
2022/11/17 08:22:51;;;;;;;11.93;9.73;;;;;;;4.70;86.96;100093.38;4993403;28;20184;-71
2022/11/17 08:25:22;;;;;;;12.17;10.87;;;;;;;4.69;87.22;100100.97;4993034;28;20207;-70
2022/11/17 08:27:50;;;;;;;12.03;10.13;;;;;;;4.65;87.21;100082.25;4990981;28;20192;-71
2022/11/17 08:30:18;;;;;;;12.87;11.30;;;;;;;4.67;87.10;100090.78;4991828;28;21034;-71
2022/11/17 08:32:50;;;;;;;14.37;11.60;;;;;;;4.66;87.21;100089.06;4988251;28;20696;-70
2022/11/17 08:35:21;;;;;;;14.53;10.60;;;;;;;4.65;87.12;100087.31;5002945;28;20215;-72
2022/11/17 08:37:46;;;;;;;13.80;11.50;;;;;;;4.65;87.37;100067.03;4993011;28;20187;-72
2022/11/17 08:40:13;;;;;;;12.83;9.87;;;;;;;4.69;87.27;100071.38;4998709;28;20727;-72
2022/11/17 08:42:39;;;;;;;14.27;10.37;;;;;;;4.64;87.48;100069.53;4993052;28;20238;-69
2022/11/17 08:45:06;;;;;;;14.27;11.63;;;;;;;4.67;87.62;100065.44;4992693;28;20635;-72
2022/11/17 08:47:32;;;;;;;12.90;11.27;;;;;;;4.66;87.29;100072.97;4987923;28;20598;-70
2022/11/17 08:49:57;;;;;;;13.40;11.50;;;;;;;4.67;87.89;100073.03;4991277;28;20775;-72
2022/11/17 08:52:23;;;;;;;14.47;11.63;;;;;;;4.67;87.57;100072.16;4993008;28;20219;-72
2022/11/17 08:54:50;;;;;;;14.80;12.07;;;;;;;4.69;87.46;100076.47;4993164;28;20188;-71
2022/11/17 08:57:16;;;;;;;13.20;11.20;;;;;;;4.68;87.57;100061.19;4992620;28;20271;-70
2022/11/17 08:59:41;;;;;;;15.17;12.03;;;;;;;4.68;87.95;100046.88;4997809;28;20287;-72
2022/11/17 09:02:07;;;;;;;14.60;12.23;;;;;;;4.70;87.81;100059.59;4992102;28;20187;-71
2022/11/17 09:04:32;;;;;;;16.23;12.27;;;;;;;4.72;88.31;100046.13;4992744;28;20840;-68
2022/11/17 09:06:58;;;;;;;14.33;11.33;;;;;;;4.73;87.66;100052.94;4992314;28;20253;-71
2022/11/17 09:09:23;;;;;;;15.80;12.10;;;;;;;4.76;88.11;100059.75;5004274;28;20339;-72
2022/11/17 09:11:49;;;;;;;14.03;11.10;;;;;;;4.75;87.52;100048.75;4992212;28;20277;-70
2022/11/17 09:14:14;;;;;;;14.07;11.47;;;;;;;4.78;87.88;100053.91;4992391;28;20195;-71
2022/11/17 09:16:39;;;;;;;16.07;11.97;;;;;;;4.78;87.82;100043.78;4992362;28;20202;-72
2022/11/17 09:19:05;;;;;;;16.40;12.43;;;;;;;4.80;87.17;100051.44;4995555;28;20327;-71
2022/11/17 09:21:32;;;;;;;16.50;12.93;;;;;;;4.83;87.34;100056.59;4995287;28;20211;-70
2022/11/17 09:23:58;;;;;;;13.90;11.07;;;;;;;4.83;87.35;100043.94;4992433;28;20195;-71
2022/11/17 09:26:24;;;;;;;14.47;11.90;;;;;;;4.83;88.07;100049.00;4991197;28;20274;-71
2022/11/17 09:28:49;;;;;;;14.90;11.90;;;;;;;4.83;87.79;100042.22;4991498;28;20215;-71
2022/11/17 09:31:17;;;;;;;13.77;11.77;;;;;;;4.86;87.68;100052.47;4992019;28;20314;-70
2022/11/17 09:33:43;;;;;;;13.57;10.87;;;;;;;4.87;87.61;100066.88;4992023;28;20215;-72
2022/11/17 09:36:11;;;;;;;16.30;12.20;;;;;;;4.87;87.88;100044.03;4991892;28;20183;-71
2022/11/17 09:38:37;;;;;;;17.27;12.37;;;;;;;4.88;87.70;100055.91;4992131;28;20202;-70
2022/11/17 09:41:14;;;;;;;14.30;11.83;;;;;;;4.86;87.71;100047.41;4991858;28;20215;-70
2022/11/17 09:44:00;;;;;;;15.43;12.00;;;;;;;4.87;87.52;100036.44;4990048;28;20688;-71
2022/11/17 09:46:46;;;;;;;15.40;12.27;;;;;;;4.91;87.52;100035.72;4987157;28;20202;-71
2022/11/17 09:49:26;;;;;;;13.67;11.70;;;;;;;4.92;87.10;100042.50;4986552;28;20223;-71
2022/11/17 09:51:57;;;;;;;16.40;12.47;;;;;;;4.95;87.10;100041.72;4990629;28;20215;-70
2022/11/17 09:54:32;;;;;;;18.00;12.00;;;;;;;4.95;87.27;100031.56;4991752;28;20274;-71
2022/11/17 09:56:58;;;;;;;15.30;12.37;;;;;;;4.97;87.04;100038.41;4990569;28;20274;-74
2022/11/17 09:59:27;;;;;;;14.43;12.00;;;;;;;5.00;87.62;100035.97;4988398;28;20846;-72
2022/11/17 10:01:53;;;;;;;17.57;12.67;;;;;;;5.01;87.32;100034.31;4991104;28;20720;-74
2022/11/17 10:04:18;;;;;;;14.93;12.63;;;;;;;5.02;87.39;100029.25;4988282;28;20282;-73
2022/11/17 10:06:48;;;;;;;14.23;11.00;;;;;;;5.05;86.78;100031.88;4988515;28;20211;-72
2022/11/17 10:09:13;;;;;;;13.97;11.83;;;;;;;5.06;87.14;100036.13;4986281;28;20192;-72
2022/11/17 10:11:42;;;;;;;13.27;11.87;;;;;;;5.09;86.93;100026.06;4988068;28;20226;-71
2022/11/17 10:14:07;;;;;;;14.97;12.27;;;;;;;5.07;86.39;100022.63;4990167;28;20192;-73
2022/11/17 10:16:33;;;;;;;14.13;11.80;;;;;;;5.09;86.49;100018.47;4990909;28;20274;-72
2022/11/17 10:19:23;;;;;;;13.83;11.77;;;;;;;5.09;86.37;100021.00;4991094;28;20270;-73
2022/11/17 10:22:12;;;;;;;18.00;12.50;;;;;;;5.11;86.61;100016.81;4991276;28;20183;-73
2022/11/17 10:24:49;;;;;;;13.47;11.23;;;;;;;5.14;86.70;100016.03;4987566;28;20223;-73
2022/11/17 10:27:25;;;;;;;14.53;12.07;;;;;;;5.15;86.46;100008.47;4989626;28;20560;-74
2022/11/17 10:30:18;;;;;;;13.97;12.00;;;;;;;5.15;86.47;100010.19;4986738;28;20218;-73
2022/11/17 10:32:54;;;;;;;15.33;12.13;;;;;;;5.21;87.25;100007.78;4989718;28;20696;-71
2022/11/17 10:35:29;;;;;;;15.83;11.97;;;;;;;5.22;87.17;100009.50;4991267;28;20180;-73
2022/11/17 10:38:00;;;;;;;14.33;11.63;;;;;;;5.22;86.73;100002.75;5005264;28;20189;-73
2022/11/17 10:40:30;;;;;;;13.90;11.90;;;;;;;5.23;86.51;99998.53;4986550;28;20212;-72
2022/11/17 10:43:20;;;;;;;14.20;12.10;;;;;;;5.22;86.50;99992.63;4990065;28;20183;-73
2022/11/17 10:45:52;;;;;;;14.57;11.97;;;;;;;5.24;87.05;99993.50;4990599;28;20194;-73
2022/11/17 10:48:23;;;;;;;15.13;12.27;;;;;;;5.23;87.41;99985.84;4982514;28;20283;-70
2022/11/17 10:50:56;;;;;;;15.27;12.43;;;;;;;5.24;87.20;99988.44;4988631;28;20232;-73
2022/11/17 10:53:29;;;;;;;18.07;12.80;;;;;;;5.28;87.56;99989.34;4986309;28;20504;-73
2022/11/17 10:56:17;;;;;;;15.03;11.63;;;;;;;5.28;87.75;99982.63;4989455;28;20242;-73
2022/11/17 10:58:55;;;;;;;14.60;11.70;;;;;;;5.29;89.09;99980.94;4998428;28;20199;-73
2022/11/17 11:01:28;;;;;;;15.63;13.20;;;;;;;5.25;88.52;99977.44;4989734;28;20208;-73
2022/11/17 11:03:54;;;;;;;16.47;13.53;;;;;;;5.24;88.97;100005.31;4993626;28;20287;-71
2022/11/17 11:06:26;;;;;;;15.77;12.50;;;;;;;5.16;89.72;99971.28;4990476;28;20779;-73
2022/11/17 11:08:57;;;;;;;16.23;13.43;;;;;;;5.17;90.69;99970.47;4987834;28;21018;-73
2022/11/17 11:11:53;;;;;;;16.53;12.57;;;;;;;5.15;90.54;99977.19;4987778;28;20266;-70
2022/11/17 11:14:37;;;;;;;18.30;13.80;;;;;;;5.18;91.23;99977.25;4985465;28;20183;-74
2022/11/17 11:17:15;;;;;;;15.90;13.13;;;;;;;5.11;91.51;99963.53;4989692;28;20187;-73
2022/11/17 11:19:44;;;;;;;18.57;13.77;;;;;;;5.09;91.65;99962.66;4988978;28;20215;-74
2022/11/17 11:22:31;;;;;;;18.17;14.50;;;;;;;5.10;91.85;99960.97;4990346;28;20265;-73
2022/11/17 11:25:04;;;;;;;19.73;14.27;;;;;;;5.07;92.59;99956.66;4989047;28;20219;-72
2022/11/17 11:28:10;;;;;;;18.13;13.53;;;;;;;5.13;92.70;99958.50;4989761;28;20661;-73
2022/11/17 11:31:16;;;;;;;16.33;13.33;;;;;;;5.09;93.49;99969.41;4994279;28;20223;-73
2022/11/17 11:33:52;;;;;;;16.00;13.53;;;;;;;5.05;92.95;99954.91;4985800;28;20286;-72
2022/11/17 11:36:21;;;;;;;18.80;13.90;;;;;;;5.08;92.80;99952.47;4984465;28;20194;-72
2022/11/17 11:38:47;;;;;;;17.47;13.70;;;;;;;5.04;93.17;99938.84;4986809;28;20187;-72
2022/11/17 11:41:34;;;;;;;16.20;13.60;;;;;;;5.04;93.01;99958.28;4988757;28;20226;-71
2022/11/17 11:44:34;;;;;;;17.67;13.93;;;;;;;5.07;93.83;99951.59;4989334;28;20191;-71
2022/11/17 11:47:28;;;;;;;18.70;15.30;;;;;;;5.06;92.76;99949.03;4988864;28;20199;-71
2022/11/17 11:50:36;;;;;;;16.63;13.83;;;;;;;5.05;92.57;99950.72;4986685;28;20210;-72
2022/11/17 11:53:15;;;;;;;20.67;14.20;;;;;;;5.04;93.12;99941.38;4982945;28;20230;-72
2022/11/17 11:55:44;;;;;;;27.40;19.30;;;;;;;5.03;94.19;99936.28;4981459;28;20839;-72
2022/11/17 11:58:17;;;;;;;19.00;14.80;;;;;;;5.01;94.19;99928.63;4982568;28;20180;-72
2022/11/17 12:00:43;;;;;;;19.83;14.57;;;;;;;5.01;94.96;99933.69;4991597;28;20303;-72
2022/11/17 12:03:27;;;;;;;16.90;13.73;;;;;;;4.98;94.29;99933.59;4991770;28;20676;-73
2022/11/17 12:09:02;;;;;;;29.00;20.77;;;;;;;5.04;94.89;99938.84;4985572;28;20189;-72
2022/11/17 12:14:17;;;;;;;20.90;14.70;;;;;;;5.02;94.64;99937.94;4984002;28;20219;-72
2022/11/17 12:16:45;;;;;;;20.90;16.33;;;;;;;5.00;94.38;99933.63;4985408;28;20228;-71
2022/11/17 12:19:58;;;;;;;17.60;14.17;;;;;;;5.05;95.22;99942.22;4982251;28;20227;-71
2022/11/17 12:22:32;;;;;;;19.27;13.90;;;;;;;5.04;95.32;99945.59;4970736;28;20196;-72
2022/11/17 12:25:18;;;;;;;23.67;16.60;;;;;;;5.00;94.95;99933.63;4987661;28;20673;-72